createdAt,value
2022-11-28T00:01:32.503Z,5.95
2022-11-28T00:03:58.910Z,5.90
2022-11-28T00:06:26.386Z,5.97
2022-11-28T00:08:53.457Z,5.90
2022-11-28T00:11:19.748Z,5.79
2022-11-28T00:13:46.435Z,5.74
2022-11-28T00:16:15.691Z,5.70
2022-11-28T00:18:42.682Z,5.67
2022-11-28T00:21:11.313Z,5.66
2022-11-28T00:23:38.572Z,5.70
2022-11-28T00:26:07.805Z,5.61
2022-11-28T00:28:34.539Z,5.53
2022-11-28T00:31:00.929Z,5.60
2022-11-28T00:33:27.594Z,5.59
2022-11-28T00:35:59.449Z,5.51
2022-11-28T00:38:25.984Z,5.31
2022-11-28T00:41:22.881Z,5.36
2022-11-28T00:43:51.145Z,5.33
2022-11-28T00:46:19.359Z,5.50
2022-11-28T00:48:46.554Z,5.36
2022-11-28T00:51:21.026Z,5.36
2022-11-28T00:53:48.936Z,5.35
2022-11-28T00:56:18.478Z,5.34
2022-11-28T00:58:49.000Z,5.26
2022-11-28T01:01:21.711Z,5.26
2022-11-28T01:03:50.227Z,5.27
2022-11-28T01:06:40.102Z,5.25
2022-11-28T01:09:13.097Z,5.10
2022-11-28T01:11:41.550Z,5.15
2022-11-28T01:14:09.003Z,5.09
2022-11-28T01:16:35.423Z,5.16
2022-11-28T01:19:02.062Z,5.12
2022-11-28T01:21:28.284Z,5.05
2022-11-28T01:23:54.699Z,5.07
2022-11-28T01:26:24.585Z,5.10
2022-11-28T01:28:51.447Z,5.14
2022-11-28T01:31:20.984Z,5.18
2022-11-28T01:33:47.737Z,5.09
2022-11-28T01:36:15.178Z,5.03
2022-11-28T01:38:42.140Z,5.05
2022-11-28T01:41:08.941Z,4.95
2022-11-28T01:43:36.540Z,4.87
2022-11-28T01:46:04.664Z,4.93
2022-11-28T01:48:40.984Z,4.91
2022-11-28T01:51:09.491Z,4.84
2022-11-28T01:53:42.060Z,4.88
2022-11-28T01:56:24.185Z,4.96
2022-11-28T01:58:58.894Z,4.93
2022-11-28T02:01:25.299Z,4.96
2022-11-28T02:03:53.493Z,4.99
2022-11-28T02:06:22.117Z,4.98
2022-11-28T02:08:53.315Z,5.05
2022-11-28T02:12:07.573Z,4.95
2022-11-28T02:14:46.737Z,4.93
2022-11-28T02:17:34.101Z,4.75
2022-11-28T02:20:36.253Z,4.74
2022-11-28T02:23:09.053Z,4.60
2022-11-28T02:26:07.189Z,4.72
2022-11-28T02:29:02.757Z,4.63
2022-11-28T02:31:53.680Z,4.47
2022-11-28T02:34:37.732Z,4.49
2022-11-28T02:37:14.839Z,4.48
2022-11-28T02:39:54.541Z,4.54
2022-11-28T02:42:26.943Z,4.49
2022-11-28T02:45:03.861Z,4.45
2022-11-28T02:47:34.904Z,4.48
2022-11-28T02:50:10.021Z,4.43
2022-11-28T02:52:44.824Z,4.47
2022-11-28T02:55:12.856Z,4.38
2022-11-28T02:57:47.965Z,4.46
2022-11-28T03:00:33.059Z,4.37
2022-11-28T03:02:59.425Z,4.39
2022-11-28T03:05:42.200Z,4.31
2022-11-28T03:08:21.981Z,4.40
2022-11-28T03:10:52.292Z,4.36
2022-11-28T03:13:23.034Z,4.19
2022-11-28T03:15:59.723Z,4.23
2022-11-28T03:18:33.721Z,4.20
2022-11-28T03:21:12.428Z,4.19
2022-11-28T03:23:51.993Z,4.13
2022-11-28T03:26:44.631Z,4.20
2022-11-28T03:29:22.747Z,4.30
2022-11-28T03:31:54.867Z,4.26
2022-11-28T03:34:26.236Z,4.16
2022-11-28T03:37:07.527Z,4.02
2022-11-28T03:39:38.738Z,4.01
2022-11-28T03:42:17.095Z,3.97
2022-11-28T03:44:58.250Z,3.91
2022-11-28T03:47:29.510Z,3.94
2022-11-28T03:50:00.947Z,3.93
2022-11-28T03:52:36.412Z,3.98
2022-11-28T03:55:10.856Z,3.98
2022-11-28T03:57:47.930Z,3.96
2022-11-28T04:00:15.313Z,4.00
2022-11-28T04:02:47.443Z,3.93
2022-11-28T04:05:48.804Z,3.90
2022-11-28T04:08:23.578Z,3.88
2022-11-28T04:10:57.843Z,3.83
2022-11-28T04:13:45.318Z,3.90
2022-11-28T04:16:39.839Z,3.86
2022-11-28T04:19:22.585Z,3.83
2022-11-28T04:21:57.078Z,3.71
2022-11-28T04:24:29.238Z,3.73
2022-11-28T04:27:01.193Z,3.64
2022-11-28T04:29:35.633Z,3.68
2022-11-28T04:32:03.626Z,3.66
2022-11-28T04:34:33.183Z,3.75
2022-11-28T04:37:03.325Z,3.73
2022-11-28T04:39:35.760Z,3.73
2022-11-28T04:42:11.762Z,3.75
2022-11-28T04:44:46.025Z,3.73
2022-11-28T04:47:12.600Z,3.77
2022-11-28T04:49:39.363Z,3.87
2022-11-28T04:52:28.434Z,3.75
2022-11-28T04:55:03.746Z,3.79
2022-11-28T04:57:39.399Z,3.68
2022-11-28T05:00:09.846Z,3.67
2022-11-28T05:02:38.727Z,3.57
2022-11-28T05:05:15.542Z,3.73
2022-11-28T05:07:42.007Z,3.64
2022-11-28T05:10:10.516Z,3.54
2022-11-28T05:12:36.991Z,3.53
2022-11-28T05:15:04.544Z,3.42
2022-11-28T05:17:31.245Z,3.46
2022-11-28T05:19:57.523Z,3.47
2022-11-28T05:22:24.098Z,3.47
2022-11-28T05:24:50.241Z,3.48
2022-11-28T05:27:16.647Z,3.42
2022-11-28T05:29:45.799Z,3.41
2022-11-28T05:32:14.583Z,3.28
2022-11-28T05:34:41.076Z,3.46
2022-11-28T05:37:07.658Z,3.51
2022-11-28T05:39:33.752Z,3.40
2022-11-28T05:42:00.506Z,3.36
2022-11-28T05:44:27.278Z,3.43
2022-11-28T05:46:53.927Z,3.34
2022-11-28T05:49:24.850Z,3.30
2022-11-28T05:51:51.795Z,3.35
2022-11-28T05:54:18.280Z,3.30
2022-11-28T05:56:44.711Z,3.37
2022-11-28T05:59:12.385Z,3.33
2022-11-28T06:01:39.762Z,3.24
2022-11-28T06:04:06.006Z,3.28
2022-11-28T06:06:34.376Z,3.20
2022-11-28T06:09:01.098Z,3.18
2022-11-28T06:11:29.685Z,3.09
2022-11-28T06:13:56.569Z,2.96
2022-11-28T06:16:26.240Z,3.03
2022-11-28T06:18:58.335Z,3.07
2022-11-28T06:21:25.662Z,2.99
2022-11-28T06:23:52.466Z,3.07
2022-11-28T06:26:21.658Z,3.06
2022-11-28T06:28:48.275Z,3.21
2022-11-28T06:31:17.928Z,3.24
2022-11-28T06:33:44.965Z,3.41
2022-11-28T06:36:12.858Z,3.37
2022-11-28T06:38:39.482Z,3.39
2022-11-28T06:41:08.352Z,3.40
2022-11-28T06:43:34.749Z,3.37
2022-11-28T06:46:01.684Z,3.41
2022-11-28T06:48:28.129Z,3.45
2022-11-28T06:51:02.239Z,3.55
2022-11-28T06:53:31.612Z,3.55
2022-11-28T06:56:07.560Z,3.62
2022-11-28T06:58:34.710Z,3.60
2022-11-28T07:01:10.138Z,3.64
2022-11-28T07:03:39.569Z,3.57
2022-11-28T07:06:07.402Z,3.53
2022-11-28T07:08:34.448Z,3.61
2022-11-28T07:11:31.292Z,3.64
2022-11-28T07:14:00.209Z,3.63
2022-11-28T07:16:30.072Z,3.80
2022-11-28T07:18:58.256Z,3.75
2022-11-28T07:21:26.366Z,3.63
2022-11-28T07:23:53.004Z,3.69
2022-11-28T07:26:21.214Z,3.87
2022-11-28T07:28:48.676Z,3.96
2022-11-28T07:31:18.188Z,4.02
2022-11-28T07:33:46.804Z,3.94
2022-11-28T07:36:16.423Z,3.88
2022-11-28T07:38:46.024Z,4.00
2022-11-28T07:41:13.396Z,4.00
2022-11-28T07:43:44.366Z,4.15
2022-11-28T07:46:13.515Z,4.15
2022-11-28T07:48:40.412Z,4.24
2022-11-28T07:51:09.295Z,4.24
2022-11-28T07:53:36.648Z,4.26
2022-11-28T07:56:04.876Z,4.25
2022-11-28T07:58:31.552Z,4.51
2022-11-28T08:00:57.736Z,4.44
2022-11-28T08:03:24.183Z,4.56
2022-11-28T08:05:50.555Z,4.50
2022-11-28T08:08:18.688Z,4.34
2022-11-28T08:10:45.771Z,4.48
2022-11-28T08:13:13.494Z,4.43
2022-11-28T08:15:40.080Z,4.42
2022-11-28T08:18:06.963Z,4.47
2022-11-28T08:20:33.232Z,4.49
2022-11-28T08:22:59.654Z,4.56
2022-11-28T08:25:26.291Z,4.63
2022-11-28T08:27:52.767Z,4.58
2022-11-28T08:30:19.115Z,4.74
2022-11-28T08:32:45.561Z,4.59
2022-11-28T08:35:11.782Z,4.78
2022-11-28T08:37:38.260Z,4.97
2022-11-28T08:40:05.567Z,4.79
2022-11-28T08:42:32.342Z,4.91
2022-11-28T08:44:58.622Z,4.84
2022-11-28T08:47:25.177Z,4.84
2022-11-28T08:49:51.612Z,4.95
2022-11-28T08:52:18.203Z,4.84
2022-11-28T08:54:46.266Z,4.90
2022-11-28T08:57:13.240Z,4.89
2022-11-28T08:59:39.563Z,4.90
2022-11-28T09:02:06.049Z,5.05
2022-11-28T09:04:32.203Z,5.13
2022-11-28T09:06:58.680Z,5.16
2022-11-28T09:09:27.083Z,5.24
2022-11-28T09:11:55.804Z,5.25
2022-11-28T09:14:21.953Z,5.26
2022-11-28T09:16:49.614Z,5.40
2022-11-28T09:19:15.894Z,5.38
2022-11-28T09:21:42.597Z,5.21
2022-11-28T09:24:08.842Z,5.31
2022-11-28T09:26:35.782Z,5.30
2022-11-28T09:29:03.060Z,5.49
2022-11-28T09:31:29.770Z,5.61
2022-11-28T09:33:56.349Z,5.65
2022-11-28T09:36:24.056Z,5.68
2022-11-28T09:38:50.830Z,5.53
2022-11-28T09:41:48.345Z,5.50
2022-11-28T09:44:21.688Z,5.58
2022-11-28T09:46:52.837Z,5.63
2022-11-28T09:49:39.874Z,5.72
2022-11-28T09:52:48.932Z,5.80
2022-11-28T09:55:26.831Z,5.78
2022-11-28T09:57:54.718Z,6.00
2022-11-28T10:00:22.388Z,5.88
2022-11-28T10:03:15.647Z,5.87
2022-11-28T10:05:56.446Z,6.02
2022-11-28T10:08:43.473Z,6.10
2022-11-28T10:11:38.944Z,6.20
2022-11-28T10:14:39.878Z,6.09
2022-11-28T10:17:22.550Z,6.24
2022-11-28T10:20:24.469Z,6.45
2022-11-28T10:23:06.455Z,6.36
2022-11-28T10:25:54.468Z,6.45
2022-11-28T10:28:33.327Z,6.58
2022-11-28T10:31:30.210Z,6.68
2022-11-28T10:34:08.884Z,6.66
2022-11-28T10:37:03.064Z,6.80
2022-11-28T10:39:29.829Z,6.74
2022-11-28T10:42:17.911Z,6.54
2022-11-28T10:44:51.633Z,6.64
2022-11-28T10:47:45.962Z,6.62
2022-11-28T10:50:32.387Z,6.73
2022-11-28T10:53:19.877Z,6.86
2022-11-28T10:56:11.390Z,6.76
2022-11-28T10:58:50.640Z,6.82
2022-11-28T11:01:16.926Z,6.82
2022-11-28T11:03:43.805Z,6.83
2022-11-28T11:06:09.892Z,6.86
2022-11-28T11:08:38.958Z,6.92
2022-11-28T11:11:26.868Z,7.03
2022-11-28T11:14:06.983Z,7.11
2022-11-28T11:16:50.292Z,7.12
2022-11-28T11:57:51.238Z,6.35
2022-11-28T12:00:26.685Z,6.46
2022-11-28T12:03:04.354Z,6.52
2022-11-28T12:06:12.183Z,6.44
2022-11-28T12:08:37.638Z,6.47
2022-11-28T12:11:14.406Z,6.65
2022-11-28T12:13:40.775Z,6.71
2022-11-28T12:16:19.866Z,6.74
2022-11-28T12:19:16.041Z,6.85
2022-11-28T12:21:58.423Z,6.82
2022-11-28T12:24:41.456Z,6.84
2022-11-28T12:27:46.855Z,6.75
2022-11-28T12:30:19.197Z,6.69
2022-11-28T12:33:10.490Z,6.85
2022-11-28T12:35:41.848Z,6.96
2022-11-28T12:38:52.056Z,6.94
2022-11-28T12:41:42.257Z,7.11
2022-11-28T12:44:23.783Z,7.12
2022-11-28T12:46:55.846Z,7.24
2022-11-28T12:49:29.863Z,7.17
2022-11-28T12:52:20.652Z,7.01
2022-11-28T12:54:47.091Z,7.09
2022-11-28T12:57:32.729Z,7.08
2022-11-28T13:00:09.151Z,7.08
2022-11-28T13:02:51.126Z,7.17
2022-11-28T13:05:27.022Z,7.04
2022-11-28T13:08:10.179Z,7.07
2022-11-28T13:11:21.458Z,7.14
2022-11-28T13:14:09.170Z,7.03
2022-11-28T13:16:46.260Z,7.07
2022-11-28T13:19:18.913Z,7.13
2022-11-28T13:22:00.943Z,7.16
2022-11-28T13:24:27.311Z,7.21
2022-11-28T13:27:02.296Z,7.22
2022-11-28T13:29:28.621Z,7.22
2022-11-28T13:32:12.642Z,7.21
2022-11-28T13:34:39.724Z,7.13
2022-11-28T13:40:33.144Z,7.12
2022-11-28T13:43:10.087Z,6.98
2022-11-28T13:45:41.836Z,6.99
2022-11-28T13:48:57.291Z,7.03
2022-11-28T13:51:30.625Z,6.94
2022-11-28T13:54:18.205Z,6.89
2022-11-28T13:56:47.369Z,6.84
2022-11-28T13:59:22.551Z,6.86
2022-11-28T14:01:59.111Z,6.74
2022-11-28T14:04:28.615Z,6.75
2022-11-28T14:07:06.721Z,6.62
2022-11-28T14:09:52.275Z,6.56
2022-11-28T14:12:30.911Z,6.50
2022-11-28T14:15:06.692Z,6.49
2022-11-28T14:18:02.083Z,6.50
2022-11-28T14:20:53.054Z,6.38
2022-11-28T14:23:25.092Z,6.33
2022-11-28T14:25:53.994Z,6.19
2022-11-28T14:28:37.067Z,6.10
2022-11-28T14:31:35.807Z,6.07
2022-11-28T14:34:10.183Z,6.14
2022-11-28T14:36:41.250Z,6.00
2022-11-28T14:39:14.283Z,5.99
2022-11-28T14:42:03.091Z,5.92
2022-11-28T14:45:20.916Z,5.94
2022-11-28T14:48:26.127Z,5.84
2022-11-28T14:50:59.381Z,5.78
2022-11-28T14:53:37.486Z,5.73
2022-11-28T14:56:12.820Z,5.62
2022-11-28T14:58:46.485Z,5.67
2022-11-28T15:01:20.879Z,5.59
2022-11-28T15:04:04.221Z,5.64
2022-11-28T15:06:36.338Z,5.54
2022-11-28T15:09:11.158Z,5.53
2022-11-28T15:11:57.831Z,5.46
2022-11-28T15:14:26.975Z,5.39
2022-11-28T15:17:01.557Z,5.37
2022-11-28T15:19:37.385Z,5.31
2022-11-28T15:22:04.223Z,5.28
2022-11-28T15:24:33.922Z,5.22
2022-11-28T15:27:06.430Z,5.19
2022-11-28T15:29:35.576Z,5.23
2022-11-28T15:32:03.776Z,5.12
2022-11-28T15:34:34.174Z,5.16
2022-11-28T15:37:17.240Z,5.21
2022-11-28T15:39:49.037Z,5.14
2022-11-28T15:42:29.871Z,5.06
2022-11-28T15:45:02.547Z,5.00
2022-11-28T15:47:29.468Z,5.03
2022-11-28T15:50:17.592Z,5.08
2022-11-28T15:53:13.771Z,4.99
2022-11-28T15:55:40.659Z,5.04
2022-11-28T15:58:11.692Z,4.99
2022-11-28T16:00:43.314Z,4.84
2022-11-28T16:03:18.167Z,4.88
2022-11-28T16:05:47.821Z,4.88
2022-11-28T16:08:25.949Z,4.77
2022-11-28T16:10:52.659Z,5.01
2022-11-28T16:13:21.374Z,4.91
2022-11-28T16:15:50.238Z,4.78
2022-11-28T16:18:17.055Z,4.85
2022-11-28T16:20:47.007Z,4.87
2022-11-28T16:23:25.021Z,4.85
2022-11-28T16:26:07.616Z,4.97
2022-11-28T16:28:40.011Z,4.96
2022-11-28T16:31:19.372Z,4.95
2022-11-28T16:33:47.053Z,4.93
2022-11-28T16:36:33.255Z,4.93
2022-11-28T16:39:10.667Z,4.97
2022-11-28T16:42:07.107Z,4.79
2022-11-28T16:44:34.001Z,4.79
2022-11-28T16:47:01.030Z,4.86
2022-11-28T16:49:33.881Z,4.86
2022-11-28T16:52:20.201Z,4.90
2022-11-28T16:54:50.534Z,4.87
2022-11-28T16:57:19.321Z,4.97
2022-11-28T16:59:47.094Z,4.92
2022-11-28T17:02:22.928Z,5.00
2022-11-28T17:04:51.501Z,5.18
2022-11-28T17:07:22.368Z,5.26
2022-11-28T17:09:49.254Z,5.27
2022-11-28T17:12:25.860Z,5.29
2022-11-28T17:14:52.853Z,5.34
2022-11-28T17:17:20.669Z,5.35
2022-11-28T17:19:47.058Z,5.39
2022-11-28T17:22:17.243Z,5.39
2022-11-28T17:24:44.759Z,5.48
2022-11-28T17:27:16.895Z,5.44
2022-11-28T17:29:43.626Z,5.54
2022-11-28T17:32:12.732Z,5.51
2022-11-28T17:34:41.180Z,5.52
2022-11-28T17:37:08.674Z,5.55
2022-11-28T17:39:35.104Z,5.73
2022-11-28T17:42:01.885Z,5.69
2022-11-28T17:44:33.597Z,5.77
2022-11-28T17:47:01.601Z,5.80
2022-11-28T17:49:30.093Z,5.95
2022-11-28T17:51:57.501Z,5.84
2022-11-28T17:54:25.778Z,5.85
2022-11-28T17:56:55.734Z,5.90
2022-11-28T17:59:24.435Z,5.83
2022-11-28T18:01:51.774Z,5.89
2022-11-28T18:04:23.127Z,5.80
2022-11-28T18:06:49.835Z,5.85
2022-11-28T18:09:16.424Z,5.73
2022-11-28T18:11:46.014Z,5.77
2022-11-28T18:14:12.682Z,5.78
2022-11-28T18:16:41.805Z,5.73
2022-11-28T18:19:09.215Z,5.74
2022-11-28T18:21:36.133Z,5.79
2022-11-28T18:24:03.965Z,5.85
2022-11-28T18:26:31.531Z,5.84
2022-11-28T18:28:58.733Z,5.85
2022-11-28T18:31:28.267Z,5.89
2022-11-28T18:34:03.881Z,5.86
2022-11-28T18:36:35.353Z,5.89
2022-11-28T18:39:05.390Z,5.90
2022-11-28T18:41:32.606Z,5.85
2022-11-28T18:44:01.491Z,5.93
2022-11-28T18:46:29.574Z,5.93
2022-11-28T18:48:57.214Z,5.87
2022-11-28T18:51:27.775Z,5.85
2022-11-28T18:53:56.096Z,5.90
2022-11-28T18:56:24.076Z,5.97
2022-11-28T18:58:52.379Z,6.07
2022-11-28T19:01:31.462Z,6.13
2022-11-28T19:04:00.883Z,6.10
2022-11-28T19:06:31.568Z,6.08
2022-11-28T19:09:00.274Z,6.23
2022-11-28T19:11:28.800Z,6.02
2022-11-28T19:13:56.415Z,6.06
2022-11-28T19:16:29.138Z,6.07
2022-11-28T19:18:56.791Z,6.16
2022-11-28T19:21:29.311Z,6.15
2022-11-28T19:23:57.647Z,6.20
2022-11-28T19:26:27.435Z,6.08
2022-11-28T19:28:54.439Z,6.15
2022-11-28T19:31:29.411Z,6.13
2022-11-28T19:34:01.737Z,6.16
2022-11-28T19:36:35.453Z,6.21
2022-11-28T19:39:03.203Z,5.99
2022-11-28T19:41:30.397Z,6.04
2022-11-28T19:43:56.792Z,6.11
2022-11-28T19:46:23.844Z,6.11
2022-11-28T19:48:51.057Z,6.04
2022-11-28T19:51:19.708Z,6.02
2022-11-28T19:53:47.157Z,6.03
2022-11-28T19:56:19.836Z,6.05
2022-11-28T19:58:47.260Z,6.06
2022-11-28T20:01:18.100Z,6.03
2022-11-28T20:03:47.155Z,6.00
2022-11-28T20:06:21.185Z,6.07
2022-11-28T20:08:49.210Z,6.12
2022-11-28T20:11:21.265Z,6.15
2022-11-28T20:13:48.575Z,6.10
2022-11-28T20:16:17.392Z,6.18
2022-11-28T20:18:44.701Z,6.16
2022-11-28T20:21:17.137Z,6.04
2022-11-28T20:23:45.833Z,6.08
2022-11-28T20:26:15.234Z,5.98
2022-11-28T20:28:43.014Z,5.98
2022-11-28T20:31:30.058Z,5.91
2022-11-28T20:33:58.125Z,5.92
2022-11-28T20:36:27.682Z,5.97
2022-11-28T20:38:55.814Z,6.00
2022-11-28T20:41:24.210Z,6.10
2022-11-28T20:43:51.158Z,6.04
2022-11-28T20:46:26.648Z,5.96
2022-11-28T20:48:53.421Z,6.08
2022-11-28T20:51:24.147Z,6.06
2022-11-28T20:53:51.584Z,5.97
2022-11-28T20:56:23.802Z,6.03
2022-11-28T20:58:50.942Z,6.00
2022-11-28T21:01:24.574Z,5.90
2022-11-28T21:03:51.848Z,6.00
2022-11-28T21:06:19.521Z,5.95
2022-11-28T21:08:45.855Z,6.06
2022-11-28T21:11:50.227Z,5.99
2022-11-28T21:14:07.455Z,5.97
2022-11-28T21:16:34.512Z,6.02
2022-11-28T21:19:06.872Z,6.00
2022-11-28T21:21:35.188Z,6.03
2022-11-28T21:24:04.703Z,6.05
2022-11-28T21:26:40.533Z,5.95
2022-11-28T21:29:10.937Z,6.01
2022-11-28T21:31:41.596Z,6.10
2022-11-28T21:34:13.462Z,6.06
2022-11-28T21:36:42.411Z,6.02
2022-11-28T21:39:14.420Z,6.11
2022-11-28T21:41:41.300Z,6.04
2022-11-28T21:44:08.338Z,6.15
2022-11-28T21:46:35.115Z,6.18
2022-11-28T21:49:01.691Z,6.22
2022-11-28T21:51:28.437Z,6.25
2022-11-28T21:53:59.229Z,6.24
2022-11-28T21:56:26.100Z,6.29
2022-11-28T21:58:53.562Z,6.22
2022-11-28T22:01:20.897Z,6.21
2022-11-28T22:03:48.585Z,6.25
2022-11-28T22:06:17.346Z,6.34
2022-11-28T22:08:44.734Z,6.29
2022-11-28T22:11:12.552Z,6.29
2022-11-28T22:13:41.713Z,6.22
2022-11-28T22:16:09.776Z,6.29
2022-11-28T22:18:37.687Z,6.29
2022-11-28T22:21:22.424Z,6.29
2022-11-28T22:23:53.865Z,6.25
2022-11-28T22:26:20.637Z,6.18
2022-11-28T22:28:53.210Z,6.22
2022-11-28T22:31:20.457Z,6.33
2022-11-28T22:33:48.419Z,6.31
2022-11-28T22:36:18.111Z,6.36
2022-11-28T22:38:53.463Z,6.26
2022-11-28T22:41:28.346Z,6.28
2022-11-28T22:44:00.087Z,6.31
2022-11-28T22:46:27.751Z,6.28
2022-11-28T22:48:54.797Z,6.22
2022-11-28T22:51:23.917Z,6.27
2022-11-28T22:53:55.335Z,6.19
2022-11-28T22:56:23.977Z,6.31
2022-11-28T22:58:51.120Z,6.24
2022-11-28T23:01:25.020Z,6.32
2022-11-28T23:03:52.573Z,6.22
2022-11-28T23:06:21.343Z,6.26
2022-11-28T23:08:54.946Z,6.24
2022-11-28T23:11:24.312Z,6.18
2022-11-28T23:13:51.692Z,6.19
2022-11-28T23:16:27.595Z,6.19
2022-11-28T23:18:57.175Z,6.19
2022-11-28T23:21:25.038Z,6.16
2022-11-28T23:23:51.829Z,6.24
2022-11-28T23:26:23.692Z,6.32
2022-11-28T23:28:51.219Z,6.32
2022-11-28T23:31:23.073Z,6.29
2022-11-28T23:33:50.053Z,6.24
2022-11-28T23:36:27.086Z,6.32
2022-11-28T23:38:56.146Z,6.26
2022-11-28T23:41:23.190Z,6.26
2022-11-28T23:43:49.937Z,6.29
2022-11-28T23:46:17.301Z,6.28
2022-11-28T23:48:45.989Z,6.29
2022-11-28T23:51:13.708Z,6.21
2022-11-28T23:53:41.263Z,6.34
2022-11-28T23:56:29.426Z,6.32
2022-11-28T23:58:56.699Z,6.24
